Time;durP1;ratioP1;P1;durP2;ratioP2;P2;SDS_P1;SDS_P2;PMS_P1;PMS_P2;Temp;Humidity;BMP_temperature;BMP_pressure;BME280_temperature;BME280_humidity;BME280_pressure;Samples;Min_cycle;Max_cycle;Signal;HPM_P1;HPM_P2
2023/01/18 00:01:41;;;;;;;26.55;17.13;;;;;;;-3.59;100.00;159642.41;5051178;28;20114;-66
2023/01/18 00:04:07;;;;;;;24.95;17.48;;;;;;;-3.67;100.00;159622.34;5051701;28;20040;-66
2023/01/18 00:06:32;;;;;;;17.95;15.73;;;;;;;-3.65;100.00;159626.38;5038585;28;20065;-66
2023/01/18 00:08:57;;;;;;;18.25;16.27;;;;;;;-3.68;100.00;159621.03;5031578;28;20025;-66
2023/01/18 00:11:23;;;;;;;18.92;16.95;;;;;;;-3.73;100.00;159606.31;5039714;28;20389;-65
2023/01/18 00:13:48;;;;;;;20.77;15.18;;;;;;;-3.69;100.00;159618.34;5052384;28;20147;-66
2023/01/18 00:16:20;;;;;;;21.42;17.73;;;;;;;-3.69;100.00;159618.34;5050727;28;20044;-65
2023/01/18 00:18:56;;;;;;;27.55;19.15;;;;;;;-3.67;100.00;159623.72;5051967;28;20100;-65
2023/01/18 00:21:23;;;;;;;25.33;18.42;;;;;;;-3.63;100.00;159633.06;5050505;28;20123;-65
2023/01/18 00:23:49;;;;;;;20.73;15.70;;;;;;;-3.63;100.00;159633.06;5052591;28;20075;-65
2023/01/18 00:26:14;;;;;;;18.83;16.40;;;;;;;-3.65;100.00;159627.69;5050216;28;20060;-65
2023/01/18 00:28:40;;;;;;;22.13;16.08;;;;;;;-3.67;100.00;159623.72;5051914;28;20395;-65
2023/01/18 00:31:10;;;;;;;32.33;16.80;;;;;;;-3.75;100.00;159600.94;5050659;28;20051;-65
2023/01/18 00:33:41;;;;;;;23.27;16.77;;;;;;;-3.76;100.00;159598.31;5051800;28;20452;-65
2023/01/18 00:36:06;;;;;;;21.75;17.90;;;;;;;-3.77;100.00;159595.66;5050351;28;20660;-65
2023/01/18 00:38:32;;;;;;;21.52;15.75;;;;;;;-3.77;100.00;159596.97;5051771;28;20021;-65
2023/01/18 00:40:57;;;;;;;20.35;17.38;;;;;;;-3.77;100.00;159595.66;5050049;28;20073;-65
2023/01/18 00:43:38;;;;;;;28.83;19.27;;;;;;;-3.77;100.00;159595.66;5051360;28;20031;-65
2023/01/18 00:46:05;;;;;;;37.28;18.90;;;;;;;-3.73;100.00;159606.31;5050529;28;20098;-65
2023/01/18 00:48:30;;;;;;;18.52;16.13;;;;;;;-3.70;100.00;159615.66;5051270;28;20025;-64
2023/01/18 00:50:56;;;;;;;19.27;16.60;;;;;;;-3.64;100.00;159629.00;5050085;28;20607;-64
2023/01/18 00:53:21;;;;;;;31.65;18.60;;;;;;;-3.59;100.00;159643.72;5051561;28;20028;-64
2023/01/18 00:55:46;;;;;;;24.20;18.10;;;;;;;-3.56;100.00;159650.41;5049804;28;20068;-64
2023/01/18 00:58:12;;;;;;;19.92;15.80;;;;;;;-3.51;100.00;159665.13;5051362;28;20057;-64
2023/01/18 01:00:37;;;;;;;27.65;19.27;;;;;;;-3.49;100.00;159669.13;5050079;28;20045;-64
2023/01/18 01:03:03;;;;;;;21.67;17.92;;;;;;;-3.41;100.00;159690.50;5049828;28;20021;-64
2023/01/18 01:08:18;;;;;;;27.10;17.13;;;;;;;-3.26;100.00;159729.28;5050602;28;20110;-65
2023/01/18 01:10:46;;;;;;;21.73;17.27;;;;;;;-3.23;100.00;159737.28;5063113;28;20037;-65
2023/01/18 01:27:04;;;;;;;22.85;17.73;;;;;;;-3.01;100.00;159792.13;5049488;28;20060;-65
2023/01/18 01:29:30;;;;;;;24.58;19.70;;;;;;;-3.00;100.00;159796.13;5050604;28;20033;-65
2023/01/18 01:31:55;;;;;;;25.77;18.15;;;;;;;-2.99;100.00;159798.78;5049572;28;20041;-65
2023/01/18 01:34:20;;;;;;;24.92;17.02;;;;;;;-3.00;100.00;159796.13;5050502;28;20044;-65
2023/01/18 01:36:48;;;;;;;25.48;17.10;;;;;;;-2.99;100.00;159798.78;5049413;28;20491;-63
2023/01/18 01:39:13;;;;;;;18.73;16.20;;;;;;;-3.02;100.00;159790.81;5050482;28;20025;-63
2023/01/18 01:41:38;;;;;;;21.58;16.42;;;;;;;-3.14;100.00;159758.69;5049007;28;20041;-63
2023/01/18 01:44:19;;;;;;;28.35;17.42;;;;;;;-3.19;100.00;159746.66;5050769;28;20048;-65
2023/01/18 01:46:51;;;;;;;29.85;19.17;;;;;;;-3.27;100.00;159725.25;5049050;28;20044;-63
2023/01/18 01:49:23;;;;;;;28.30;17.17;;;;;;;-3.28;100.00;159722.63;5050070;28;20031;-63
2023/01/18 01:52:02;;;;;;;21.25;17.73;;;;;;;-3.30;100.00;159717.25;5049320;28;20041;-63
2023/01/18 01:54:36;;;;;;;21.90;18.40;;;;;;;-3.28;100.00;159723.94;5050340;28;20028;-63
2023/01/18 01:57:14;;;;;;;24.42;19.42;;;;;;;-3.31;100.00;159715.91;5048565;28;20044;-63
2023/01/18 01:59:44;;;;;;;34.53;22.05;;;;;;;-3.42;100.00;159687.81;5050306;28;20145;-63
2023/01/18 02:02:10;;;;;;;26.75;17.33;;;;;;;-3.36;100.00;159703.91;5049503;28;20037;-64
2023/01/18 02:04:37;;;;;;;30.60;18.25;;;;;;;-3.45;100.00;159678.47;5050078;28;20059;-64
2023/01/18 02:07:02;;;;;;;22.27;18.33;;;;;;;-3.49;100.00;159667.78;5048132;28;20532;-66
2023/01/18 02:09:27;;;;;;;28.45;18.05;;;;;;;-3.54;100.00;159657.06;5050053;28;20039;-64
2023/01/18 02:11:54;;;;;;;28.30;19.27;;;;;;;-3.60;100.00;159641.03;5049407;28;20044;-64
2023/01/18 02:14:25;;;;;;;24.15;19.55;;;;;;;-3.67;100.00;159622.34;5050783;28;20061;-63
2023/01/18 02:17:31;;;;;;;22.30;17.63;;;;;;;-3.69;100.00;159617.03;5048951;28;20081;-63
2023/01/18 02:20:30;;;;;;;22.40;18.55;;;;;;;-3.73;100.00;159607.69;5061930;28;20360;-63
2023/01/18 02:23:01;;;;;;;28.15;18.88;;;;;;;-3.78;100.00;159594.28;5069535;28;20134;-63
2023/01/18 02:25:56;;;;;;;31.92;19.67;;;;;;;-3.80;100.00;159587.59;5068346;28;20044;-63
2023/01/18 02:28:25;;;;;;;30.10;18.60;;;;;;;-3.83;100.00;159580.94;5059264;28;20037;-64
2023/01/18 02:31:21;;;;;;;29.52;20.33;;;;;;;-3.89;100.00;159566.22;5058065;28;20071;-64
2023/01/18 02:34:01;;;;;;;27.10;22.42;;;;;;;-3.93;100.00;159554.19;5050450;28;20075;-64
2023/01/18 02:37:00;;;;;;;26.45;21.20;;;;;;;-3.90;100.00;159562.22;5048808;28;20041;-64
2023/01/18 02:39:42;;;;;;;35.00;22.48;;;;;;;-3.89;100.00;159566.22;5049907;28;20052;-64
2023/01/18 02:47:54;;;;;;;33.42;20.17;;;;;;;-4.00;100.00;159536.84;5028923;28;20048;-65
2023/01/18 02:50:30;;;;;;;28.98;22.70;;;;;;;-4.02;100.00;159531.50;5043424;28;20025;-64
2023/01/18 02:52:55;;;;;;;32.13;22.85;;;;;;;-4.02;100.00;159531.50;5050354;28;20032;-65
2023/01/18 02:55:30;;;;;;;38.90;21.40;;;;;;;-4.04;100.00;159526.13;5048245;28;20029;-64
2023/01/18 02:58:02;;;;;;;32.83;23.83;;;;;;;-4.05;100.00;159523.44;5050285;28;20039;-65
2023/01/18 03:00:29;;;;;;;35.00;21.77;;;;;;;-4.11;100.00;159508.78;5048466;28;20058;-62
2023/01/18 03:02:57;;;;;;;30.65;21.75;;;;;;;-4.10;100.00;159511.47;5050238;28;20074;-65
2023/01/18 03:05:23;;;;;;;31.10;23.65;;;;;;;-4.10;100.00;159510.13;5048389;28;20079;-64
2023/01/18 03:08:24;;;;;;;30.85;21.80;;;;;;;-4.07;100.00;159518.16;5052700;28;20079;-65
2023/01/18 03:10:55;;;;;;;33.38;25.80;;;;;;;-4.09;100.00;159514.09;5050502;28;20083;-65
2023/01/18 03:13:50;;;;;;;28.58;21.45;;;;;;;-4.08;100.00;159515.47;5053757;28;20040;-65
2023/01/18 03:16:24;;;;;;;25.92;20.63;;;;;;;-4.08;100.00;159515.47;5051911;28;20059;-65
2023/01/18 03:19:01;;;;;;;41.45;24.17;;;;;;;-4.06;100.00;159522.13;5057833;28;20031;-65
2023/01/18 03:21:35;;;;;;;31.60;24.67;;;;;;;-4.07;100.00;159518.16;5071920;28;20077;-65
2023/01/18 03:24:04;;;;;;;29.83;24.27;;;;;;;-4.06;100.00;159520.81;5073457;28;20060;-65
2023/01/18 03:26:33;;;;;;;26.83;21.48;;;;;;;-4.10;100.00;159510.13;5072228;28;20079;-64
2023/01/18 03:34:48;;;;;;;31.23;23.30;;;;;;;-4.25;100.00;159471.41;5073658;28;20055;-64
2023/01/18 03:37:19;;;;;;;35.20;23.73;;;;;;;-4.27;100.00;159466.03;5071910;28;20067;-64
2023/01/18 03:39:50;;;;;;;29.58;23.67;;;;;;;-4.27;100.00;159467.34;5073121;28;20438;-63
2023/01/18 03:42:36;;;;;;;31.00;23.95;;;;;;;-4.23;100.00;159478.06;5071719;28;20094;-63
2023/01/18 03:45:28;;;;;;;40.90;24.83;;;;;;;-4.19;100.00;159488.72;5073338;28;20063;-63
2023/01/18 03:47:53;;;;;;;29.48;20.50;;;;;;;-4.19;100.00;159488.72;5071843;28;20048;-63
2023/01/18 03:50:28;;;;;;;33.97;22.80;;;;;;;-4.23;100.00;159478.06;5070931;28;20040;-62
2023/01/18 03:53:01;;;;;;;31.48;24.52;;;;;;;-4.22;100.00;159480.75;5073016;28;20028;-63
2023/01/18 03:55:42;;;;;;;43.67;24.70;;;;;;;-4.22;100.00;159480.75;5071404;28;20051;-62
2023/01/18 03:58:13;;;;;;;28.48;22.38;;;;;;;-4.20;100.00;159486.06;5072675;28;20027;-62
2023/01/18 04:00:39;;;;;;;27.20;22.67;;;;;;;-4.25;100.00;159472.72;5070815;28;20071;-62
2023/01/18 04:03:05;;;;;;;31.90;24.73;;;;;;;-4.25;100.00;159472.72;5063823;28;20495;-63
2023/01/18 04:05:32;;;;;;;38.58;24.33;;;;;;;-4.31;100.00;159458.00;5050625;28;20215;-62
2023/01/18 04:07:58;;;;;;;45.33;25.75;;;;;;;-4.26;100.00;159470.03;5052592;28;20131;-63
2023/01/18 04:10:23;;;;;;;37.58;27.27;;;;;;;-4.29;100.00;159462.03;5051023;28;20128;-63
2023/01/18 04:12:48;;;;;;;37.35;25.10;;;;;;;-4.30;100.00;159459.38;5053067;28;20048;-63
2023/01/18 04:15:14;;;;;;;28.77;22.70;;;;;;;-4.34;100.00;159448.66;5050807;28;20480;-62
2023/01/18 04:17:39;;;;;;;33.28;23.85;;;;;;;-4.29;100.00;159462.03;5052756;28;20400;-62
2023/01/18 04:20:05;;;;;;;40.22;26.10;;;;;;;-4.26;100.00;159470.03;5052136;28;20025;-62
2023/01/18 04:22:31;;;;;;;38.00;25.45;;;;;;;-4.37;100.00;159440.66;5050492;28;20041;-63
2023/01/18 04:24:56;;;;;;;33.65;25.30;;;;;;;-4.25;100.00;159472.72;5052672;28;20029;-63
2023/01/18 04:27:23;;;;;;;34.55;24.75;;;;;;;-4.26;100.00;159470.03;5050702;28;20052;-62
2023/01/18 04:29:49;;;;;;;34.28;25.52;;;;;;;-4.26;100.00;159470.03;5052069;28;20021;-62
2023/01/18 04:32:14;;;;;;;30.23;22.40;;;;;;;-4.27;100.00;159466.03;5050810;28;20041;-62
2023/01/18 04:34:40;;;;;;;25.52;22.60;;;;;;;-4.32;100.00;159454.00;5052529;28;20043;-62
2023/01/18 04:37:05;;;;;;;32.30;25.67;;;;;;;-4.31;100.00;159456.69;5050647;28;20067;-63
2023/01/18 04:39:30;;;;;;;30.33;24.50;;;;;;;-4.32;100.00;159454.00;5052050;28;20504;-62
2023/01/18 04:41:56;;;;;;;30.10;24.58;;;;;;;-4.36;100.00;159443.34;5050671;28;20037;-62
2023/01/18 04:44:21;;;;;;;35.22;26.65;;;;;;;-4.35;100.00;159445.97;5051994;28;20028;-63
2023/01/18 04:46:47;;;;;;;36.85;24.15;;;;;;;-4.39;100.00;159435.31;5050456;28;20495;-62
2023/01/18 04:49:16;;;;;;;36.92;25.88;;;;;;;-4.40;100.00;159434.00;5051643;28;20501;-62
2023/01/18 04:51:42;;;;;;;34.10;26.13;;;;;;;-4.38;100.00;159438.00;5050538;28;20057;-63
2023/01/18 04:54:09;;;;;;;42.30;24.63;;;;;;;-4.37;100.00;159440.66;5051737;28;20523;-63
2023/01/18 04:56:35;;;;;;;34.28;25.75;;;;;;;-4.32;100.00;159454.00;5050363;28;20052;-63
2023/01/18 04:59:00;;;;;;;45.15;25.80;;;;;;;-4.34;100.00;159448.66;5051890;28;20021;-63
2023/01/18 05:01:25;;;;;;;31.30;23.42;;;;;;;-4.38;100.00;159438.00;5049999;28;20107;-63
2023/01/18 05:03:54;;;;;;;37.13;24.42;;;;;;;-4.36;100.00;159443.34;5051704;28;20415;-63
2023/01/18 05:06:19;;;;;;;37.03;24.52;;;;;;;-4.36;100.00;159443.34;5050015;28;20068;-63
2023/01/18 05:08:45;;;;;;;30.15;26.38;;;;;;;-4.33;100.00;159452.69;5051929;28;20033;-64
2023/01/18 05:11:12;;;;;;;42.40;24.52;;;;;;;-4.34;100.00;159448.66;5050530;28;20112;-62
2023/01/18 05:13:39;;;;;;;36.33;25.45;;;;;;;-4.32;100.00;159454.00;5055400;28;20024;-62
2023/01/18 05:16:05;;;;;;;33.53;24.38;;;;;;;-4.35;100.00;159447.34;5058627;28;20094;-62
2023/01/18 05:18:31;;;;;;;32.15;23.65;;;;;;;-4.35;100.00;159445.97;5070958;28;20434;-62
2023/01/18 05:20:56;;;;;;;33.13;25.35;;;;;;;-4.36;100.00;159443.34;5070170;28;20048;-63
2023/01/18 05:23:22;;;;;;;35.70;25.85;;;;;;;-4.34;100.00;159448.66;5071076;28;20470;-63
2023/01/18 05:25:55;;;;;;;33.85;24.30;;;;;;;-4.31;100.00;159456.69;5067895;28;20098;-62
2023/01/18 05:28:23;;;;;;;32.85;25.73;;;;;;;-4.30;100.00;159459.38;5051199;28;20379;-63
2023/01/18 05:30:49;;;;;;;30.15;25.05;;;;;;;-4.32;100.00;159455.31;5048948;28;20065;-62
2023/01/18 05:33:15;;;;;;;29.65;23.92;;;;;;;-4.28;100.00;159464.66;5057022;28;20024;-62
2023/01/18 05:35:45;;;;;;;32.53;24.73;;;;;;;-4.25;100.00;159472.72;5052814;28;20083;-62
2023/01/18 05:38:11;;;;;;;28.98;22.35;;;;;;;-4.27;100.00;159467.34;5049288;28;20020;-62
2023/01/18 05:40:36;;;;;;;40.95;25.05;;;;;;;-4.20;100.00;159484.75;5049570;28;20107;-62
2023/01/18 05:43:01;;;;;;;30.08;24.88;;;;;;;-4.16;100.00;159496.75;5051220;28;20032;-62
2023/01/18 05:45:27;;;;;;;32.22;25.58;;;;;;;-4.10;100.00;159510.13;5049413;28;20041;-62
2023/01/18 05:47:53;;;;;;;33.75;26.05;;;;;;;-4.06;100.00;159520.81;5050946;28;20024;-62
2023/01/18 05:50:19;;;;;;;36.72;26.45;;;;;;;-4.02;100.00;159532.81;5049168;28;20036;-62
2023/01/18 05:52:44;;;;;;;33.22;24.67;;;;;;;-3.99;100.00;159539.53;5051062;28;20021;-62
2023/01/18 05:55:09;;;;;;;29.20;23.92;;;;;;;-3.98;100.00;159542.16;5049355;28;20086;-62
2023/01/18 05:57:35;;;;;;;27.45;22.58;;;;;;;-4.00;100.00;159536.84;5050915;28;20025;-62
2023/01/18 06:00:01;;;;;;;34.53;23.60;;;;;;;-3.96;100.00;159547.50;5050768;28;20033;-62
2023/01/18 06:02:27;;;;;;;26.95;21.60;;;;;;;-3.95;100.00;159550.19;5049058;28;20044;-62
2023/01/18 06:04:52;;;;;;;33.67;24.10;;;;;;;-3.99;100.00;159539.53;5049596;28;20021;-62
2023/01/18 06:07:17;;;;;;;28.58;23.63;;;;;;;-3.98;100.00;159542.16;5048675;28;20116;-62
2023/01/18 06:09:43;;;;;;;35.17;22.48;;;;;;;-4.02;100.00;159532.81;5050538;28;20507;-62
2023/01/18 06:12:09;;;;;;;25.30;21.15;;;;;;;-4.06;100.00;159520.81;5049511;28;20037;-62
2023/01/18 06:14:34;;;;;;;29.23;22.08;;;;;;;-4.10;100.00;159510.13;5050548;28;20025;-62
2023/01/18 06:17:00;;;;;;;26.38;20.40;;;;;;;-4.12;100.00;159504.75;5049185;28;20040;-62
2023/01/18 06:19:25;;;;;;;29.70;22.27;;;;;;;-4.18;100.00;159491.41;5050670;28;20025;-62
2023/01/18 06:21:52;;;;;;;30.90;22.85;;;;;;;-4.18;100.00;159491.41;5048895;28;20052;-62
2023/01/18 06:24:17;;;;;;;30.45;22.02;;;;;;;-4.17;100.00;159494.09;5050317;28;20025;-62
2023/01/18 06:26:42;;;;;;;24.73;21.25;;;;;;;-4.18;100.00;159491.41;5048513;28;20499;-61
2023/01/18 06:29:08;;;;;;;33.65;23.75;;;;;;;-4.17;100.00;159494.09;5048204;28;20045;-61
2023/01/18 06:31:33;;;;;;;27.70;23.77;;;;;;;-4.13;100.00;159502.13;5048895;28;20048;-60
2023/01/18 06:33:58;;;;;;;33.65;24.40;;;;;;;-4.15;100.00;159499.44;5050624;28;20021;-60
2023/01/18 06:36:24;;;;;;;31.80;23.27;;;;;;;-4.10;100.00;159510.13;5047940;28;20577;-60
2023/01/18 06:38:49;;;;;;;31.75;25.08;;;;;;;-4.12;100.00;159504.75;5050484;28;20135;-61
2023/01/18 06:41:14;;;;;;;32.05;24.98;;;;;;;-4.15;100.00;159499.44;5038915;28;20053;-60
2023/01/18 06:43:40;;;;;;;30.35;24.77;;;;;;;-4.16;100.00;159496.75;5033731;28;20013;-61
2023/01/18 06:46:08;;;;;;;41.75;23.70;;;;;;;-4.10;100.00;159510.13;5041097;28;20045;-60
2023/01/18 06:48:34;;;;;;;29.95;24.13;;;;;;;-4.09;100.00;159512.78;5054154;28;20029;-61
2023/01/18 06:50:59;;;;;;;30.70;24.85;;;;;;;-4.09;100.00;159512.78;5052831;28;20120;-60
2023/01/18 06:53:25;;;;;;;32.45;25.67;;;;;;;-4.05;100.00;159523.44;5054076;28;20033;-60
2023/01/18 06:55:58;;;;;;;31.50;23.98;;;;;;;-4.09;100.00;159514.09;5052813;28;20032;-60
2023/01/18 06:58:25;;;;;;;36.63;26.45;;;;;;;-4.13;100.00;159502.13;5053964;28;20024;-61
2023/01/18 07:00:58;;;;;;;28.58;23.83;;;;;;;-4.09;100.00;159514.09;5052902;28;20033;-61
2023/01/18 07:03:26;;;;;;;32.10;25.13;;;;;;;-4.08;100.00;159515.47;5053957;28;20029;-61
2023/01/18 07:05:56;;;;;;;32.15;22.88;;;;;;;-4.11;100.00;159507.44;5052276;28;20048;-60
2023/01/18 07:08:22;;;;;;;34.10;24.83;;;;;;;-4.09;100.00;159512.78;5053642;28;20044;-60
2023/01/18 07:10:48;;;;;;;35.40;22.75;;;;;;;-4.12;100.00;159506.13;5052520;28;20047;-60
2023/01/18 07:13:13;;;;;;;30.40;23.15;;;;;;;-4.13;100.00;159502.13;5053445;28;20051;-61
2023/01/18 07:15:39;;;;;;;30.77;24.48;;;;;;;-4.10;100.00;159510.13;5052463;28;20520;-60
2023/01/18 07:18:04;;;;;;;34.33;25.05;;;;;;;-4.08;100.00;159516.78;5053959;28;20043;-61
2023/01/18 07:20:29;;;;;;;35.10;25.23;;;;;;;-4.06;100.00;159520.81;5051689;28;20067;-60
2023/01/18 07:22:55;;;;;;;36.53;22.80;;;;;;;-4.03;100.00;159528.81;5053041;28;20025;-60
2023/01/18 07:25:21;;;;;;;29.13;23.13;;;;;;;-4.03;100.00;159528.81;5051186;28;20021;-60
2023/01/18 07:27:47;;;;;;;28.02;23.50;;;;;;;-4.02;100.00;159531.50;5052824;28;20036;-61
2023/01/18 07:30:13;;;;;;;28.13;20.10;;;;;;;-4.07;100.00;159519.47;5051233;28;20491;-60
2023/01/18 07:32:43;;;;;;;25.95;22.20;;;;;;;-4.11;100.00;159507.44;5053261;28;20104;-61
2023/01/18 07:35:09;;;;;;;33.40;22.65;;;;;;;-4.27;100.00;159467.34;5051187;28;20032;-60
2023/01/18 07:37:35;;;;;;;30.42;21.92;;;;;;;-4.16;100.00;159496.75;5050841;28;20614;-61
2023/01/18 07:40:01;;;;;;;29.25;22.25;;;;;;;-4.19;100.00;159488.72;5053284;28;20412;-61
2023/01/18 07:42:26;;;;;;;30.95;22.98;;;;;;;-4.13;100.00;159502.13;5051151;28;20041;-61
2023/01/18 07:44:51;;;;;;;32.13;23.95;;;;;;;-4.12;100.00;159506.13;5053361;28;20028;-62
2023/01/18 07:47:17;;;;;;;30.65;21.10;;;;;;;-4.15;100.00;159499.44;5051472;28;20041;-60
2023/01/18 07:49:42;;;;;;;39.22;24.17;;;;;;;-4.15;100.00;159499.44;5052597;28;20047;-60
2023/01/18 07:52:08;;;;;;;29.10;23.67;;;;;;;-4.09;100.00;159514.09;5051802;28;20556;-60
2023/01/18 07:54:33;;;;;;;26.80;22.00;;;;;;;-4.06;100.00;159520.81;5052009;28;20070;-60
2023/01/18 07:56:58;;;;;;;36.25;23.58;;;;;;;-4.03;100.00;159528.81;5051055;28;20033;-60
2023/01/18 07:59:24;;;;;;;43.50;27.02;;;;;;;-4.01;100.00;159534.16;5053061;28;20025;-60
2023/01/18 08:01:49;;;;;;;87.70;49.67;;;;;;;-3.99;100.00;159539.53;5051460;28;20040;-60
2023/01/18 08:04:14;;;;;;;82.45;51.05;;;;;;;-3.99;100.00;159540.84;5052445;28;20045;-60
2023/01/18 08:06:40;;;;;;;60.80;39.42;;;;;;;-3.98;100.00;159542.16;5051219;28;20060;-60
2023/01/18 08:09:05;;;;;;;44.88;30.08;;;;;;;-3.97;100.00;159544.84;5052509;28;20336;-60
2023/01/18 08:11:31;;;;;;;34.67;25.10;;;;;;;-3.86;100.00;159572.88;5051211;28;20079;-60
2023/01/18 08:13:56;;;;;;;33.53;23.52;;;;;;;-3.76;100.00;159598.31;5052444;28;20029;-60
2023/01/18 08:16:23;;;;;;;27.38;23.75;;;;;;;-3.70;100.00;159614.34;5051202;28;20048;-60
2023/01/18 08:18:49;;;;;;;24.83;22.13;;;;;;;-3.63;100.00;159633.06;5052712;28;20032;-61
2023/01/18 08:21:14;;;;;;;25.30;21.90;;;;;;;-3.59;100.00;159643.72;5050645;28;20581;-60
2023/01/18 08:23:40;;;;;;;29.20;22.13;;;;;;;-3.46;100.00;159675.84;5052337;28;20017;-60
2023/01/18 08:26:06;;;;;;;29.88;21.75;;;;;;;-3.42;100.00;159686.50;5050748;28;20060;-58
2023/01/18 08:28:32;;;;;;;28.17;19.73;;;;;;;-3.44;100.00;159682.50;5051848;28;20023;-58
2023/01/18 08:31:13;;;;;;;28.90;20.85;;;;;;;-3.38;100.00;159698.53;5051077;28;20041;-59
2023/01/18 08:33:44;;;;;;;28.60;21.58;;;;;;;-3.29;100.00;159721.25;5052392;28;20395;-61
2023/01/18 08:36:16;;;;;;;27.52;20.50;;;;;;;-3.16;100.00;159753.38;5050614;28;20041;-60
2023/01/18 08:38:42;;;;;;;27.15;21.90;;;;;;;-3.14;100.00;159758.69;5052379;28;20478;-62
2023/01/18 08:41:07;;;;;;;23.55;21.08;;;;;;;-3.08;100.00;159774.72;5051102;28;20044;-62
2023/01/18 08:43:33;;;;;;;26.77;22.92;;;;;;;-3.03;100.00;159789.44;5051704;28;20024;-62
2023/01/18 08:45:58;;;;;;;23.10;20.45;;;;;;;-2.99;100.00;159798.78;5050886;28;20037;-59
2023/01/18 08:48:24;;;;;;;26.80;20.15;;;;;;;-2.95;100.00;159809.53;5051785;28;20052;-61
2023/01/18 08:50:49;;;;;;;35.13;23.58;;;;;;;-2.82;100.00;159842.91;5047670;28;20049;-59
2023/01/18 08:53:14;;;;;;;27.15;20.05;;;;;;;-2.71;100.00;159871.00;5051079;28;20032;-59
2023/01/18 08:55:39;;;;;;;20.95;18.20;;;;;;;-2.59;100.00;159903.13;5050479;28;20548;-59
2023/01/18 08:58:05;;;;;;;28.83;21.05;;;;;;;-2.30;100.00;159978.03;5051437;28;20095;-59
2023/01/18 09:00:31;;;;;;;27.25;20.17;;;;;;;-1.95;100.00;160069.00;5050231;28;20045;-60
2023/01/18 09:02:57;;;;;;;24.92;19.00;;;;;;;-1.73;100.00;160125.19;5051911;28;20064;-59
2023/01/18 09:05:23;;;;;;;28.98;17.88;;;;;;;-1.76;100.00;160117.19;5049207;28;20040;-59
2023/01/18 09:07:51;;;;;;;23.00;20.58;;;;;;;-1.80;100.00;160106.47;5051354;28;20056;-59
2023/01/18 09:10:16;;;;;;;34.63;22.10;;;;;;;-1.77;100.00;160114.50;5049910;28;20649;-59
2023/01/18 09:12:42;;;;;;;25.70;19.13;;;;;;;-1.67;100.00;160141.25;5051424;28;20263;-59
2023/01/18 09:15:08;;;;;;;20.13;17.17;;;;;;;-1.34;100.00;160226.94;5051772;28;20017;-59
2023/01/18 09:17:33;;;;;;;24.90;18.90;;;;;;;-1.13;100.00;160280.47;5050188;28;20143;-59
2023/01/18 09:19:58;;;;;;;25.60;17.85;;;;;;;-0.85;100.00;160352.78;5051417;28;20474;-59
2023/01/18 09:22:24;;;;;;;19.38;17.42;;;;;;;-0.66;100.00;160403.69;5049769;28;20048;-59
2023/01/18 09:24:50;;;;;;;24.90;16.92;;;;;;;-0.48;100.00;160449.22;5051915;28;20027;-60
2023/01/18 09:27:16;;;;;;;25.73;17.83;;;;;;;-0.24;100.00;160510.84;5049301;28;20041;-59
2023/01/18 09:29:41;;;;;;;26.67;17.33;;;;;;;-0.01;100.00;160572.50;5051244;28;20039;-59
2023/01/18 09:32:09;;;;;;;17.17;13.48;;;;;;;0.29;100.00;160648.91;5049861;28;20410;-60
2023/01/18 09:34:35;;;;;;;21.70;15.02;;;;;;;0.55;100.00;160715.91;5051367;28;20025;-59
2023/01/18 09:37:00;;;;;;;17.98;15.73;;;;;;;0.68;100.00;160749.44;5049850;28;20135;-59
2023/01/18 09:39:26;;;;;;;18.92;14.93;;;;;;;0.83;100.00;160789.66;5051219;28;20357;-59
2023/01/18 09:41:55;;;;;;;25.90;16.70;;;;;;;0.93;100.00;160816.47;5049472;28;20108;-59
2023/01/18 09:44:27;;;;;;;26.77;14.88;;;;;;;1.15;100.00;160871.47;5051147;28;20049;-59
2023/01/18 09:47:16;;;;;;;14.77;13.15;;;;;;;1.45;100.00;160950.63;5049703;28;20569;-59
2023/01/18 09:49:58;;;;;;;17.65;15.65;;;;;;;1.67;100.00;161008.28;5050668;28;20134;-59
2023/01/18 09:52:24;;;;;;;18.95;14.27;;;;;;;1.83;100.00;161049.88;5049458;28;20048;-59
2023/01/18 09:55:05;;;;;;;22.27;15.95;;;;;;;2.13;100.00;161127.72;5051037;28;20111;-59
2023/01/18 09:57:33;;;;;;;14.32;11.75;;;;;;;2.66;100.00;161264.63;5049003;28;20067;-59
2023/01/18 10:00:03;;;;;;;21.70;13.25;;;;;;;2.91;100.00;161330.41;5050977;28;20497;-59
2023/01/18 10:02:38;;;;;;;14.80;10.98;;;;;;;2.93;100.00;161335.81;5047755;28;20868;-59
2023/01/18 10:05:12;;;;;;;15.43;12.07;;;;;;;3.21;100.00;161407.00;5049820;28;20464;-59
2023/01/18 10:08:02;;;;;;;18.05;10.90;;;;;;;3.53;100.00;161490.31;5029093;28;20136;-60
2023/01/18 10:10:33;;;;;;;15.32;11.75;;;;;;;3.65;100.00;161523.84;5028487;28;20062;-60
2023/01/18 10:13:27;;;;;;;18.45;10.35;;;;;;;3.72;100.00;161541.34;5030940;28;20142;-60
2023/01/18 10:15:53;;;;;;;15.60;12.48;;;;;;;3.80;100.00;161562.84;5029109;28;20049;-60
2023/01/18 10:18:18;;;;;;;14.32;10.60;;;;;;;3.78;100.00;161557.44;5030242;28;20033;-60
2023/01/18 10:20:56;;;;;;;14.63;9.88;;;;;;;3.78;100.00;161557.44;5029574;28;20057;-60
2023/01/18 10:23:33;;;;;;;14.48;11.95;;;;;;;3.98;100.00;161608.53;5030683;28;20391;-60
2023/01/18 10:26:05;;;;;;;21.33;11.93;;;;;;;4.08;100.00;161634.06;5028893;28;20099;-59
2023/01/18 10:28:46;;;;;;;13.23;10.57;;;;;;;3.91;100.00;161589.75;5028693;28;20040;-59
2023/01/18 10:31:30;;;;;;;15.75;10.32;;;;;;;3.83;100.00;161569.56;5028837;28;20128;-59
2023/01/18 10:33:59;;;;;;;18.40;12.02;;;;;;;3.58;100.00;161505.03;5030211;28;20033;-59
2023/01/18 10:36:33;;;;;;;13.32;10.57;;;;;;;3.47;100.00;161476.84;5039102;28;20144;-59
2023/01/18 10:39:11;;;;;;;11.20;10.10;;;;;;;3.57;100.00;161502.41;5050230;28;20610;-59
2023/01/18 10:41:39;;;;;;;10.87;7.67;;;;;;;3.52;100.00;161488.94;5016787;28;20046;-59
2023/01/18 10:44:05;;;;;;;13.02;10.63;;;;;;;3.53;100.00;161490.31;5026496;28;20410;-59
2023/01/18 10:46:30;;;;;;;16.48;11.48;;;;;;;3.59;100.00;161506.41;5032725;28;20033;-59
2023/01/18 10:48:56;;;;;;;10.45;9.48;;;;;;;3.57;100.00;161501.03;5030214;28;20572;-59
2023/01/18 10:51:37;;;;;;;17.73;10.57;;;;;;;3.32;100.00;161436.53;5038920;28;20511;-59
2023/01/18 10:54:18;;;;;;;10.23;9.13;;;;;;;3.15;100.00;161393.59;5050527;28;20021;-59
2023/01/18 10:56:43;;;;;;;16.02;11.55;;;;;;;2.96;100.00;161343.88;5048543;28;20064;-59
2023/01/18 10:59:25;;;;;;;12.93;9.73;;;;;;;2.91;100.00;161329.09;5049681;28;20110;-59
2023/01/18 11:01:55;;;;;;;11.73;10.55;;;;;;;2.93;100.00;161335.81;5048581;28;20148;-59
2023/01/18 11:04:25;;;;;;;15.10;10.73;;;;;;;3.04;100.00;161364.00;5050595;28;20104;-59
2023/01/18 11:07:03;;;;;;;14.68;10.65;;;;;;;3.20;100.00;161404.31;5048433;28;20064;-59
2023/01/18 11:09:45;;;;;;;;;;;;;;;3.30;100.00;161431.19;5049488;28;20144;-59
2023/01/18 11:12:33;;;;;;;10.55;9.20;;;;;;;3.52;100.00;161487.59;5011729;28;19913;-59
2023/01/18 11:15:14;;;;;;;11.65;10.48;;;;;;;3.79;100.00;161560.16;5010389;28;20033;-59
2023/01/18 11:17:41;;;;;;;15.15;11.15;;;;;;;3.80;100.00;161562.84;5066279;28;20597;-59
2023/01/18 11:20:14;;;;;;;12.45;11.20;;;;;;;3.61;100.00;161513.13;5049921;28;20498;-59
2023/01/18 11:22:51;;;;;;;12.25;11.00;;;;;;;3.20;100.00;161404.31;5048477;28;20514;-59
2023/01/18 11:25:17;;;;;;;15.88;10.35;;;;;;;2.94;100.00;161338.50;5062612;28;20112;-59
2023/01/18 11:27:42;;;;;;;15.82;12.18;;;;;;;2.87;100.00;161319.69;5056034;28;20096;-59
2023/01/18 11:30:21;;;;;;;13.90;10.70;;;;;;;2.81;100.00;161303.59;5064982;28;20029;-59
2023/01/18 11:32:47;;;;;;;14.10;11.77;;;;;;;2.70;100.00;161276.72;5069963;28;20040;-59
2023/01/18 11:35:35;;;;;;;13.65;11.68;;;;;;;2.62;100.00;161253.91;5060502;28;20028;-59
2023/01/18 11:38:02;;;;;;;13.93;10.27;;;;;;;2.58;100.00;161243.16;5053521;28;20498;-59
2023/01/18 11:40:31;;;;;;;12.90;11.27;;;;;;;2.62;100.00;161253.91;5051139;28;20021;-59
2023/01/18 11:43:08;;;;;;;14.63;12.27;;;;;;;2.63;100.00;161257.94;5053714;28;20032;-59